Time;durP1;ratioP1;P1;durP2;ratioP2;P2;SDS_P1;SDS_P2;PMS_P1;PMS_P2;Temp;Humidity;BMP_temperature;BMP_pressure;BME280_temperature;BME280_humidity;BME280_pressure;Samples;Min_cycle;Max_cycle;Signal;HPM_P1;HPM_P2
2023/07/14 00:01:55;;;;;;;1.95;1.30;;;;;;;17.04;100.00;97955.09;1224226;75;2924028;-68
2023/07/14 00:04:32;;;;;;;1.40;1.30;;;;;;;17.00;100.00;97951.88;1224400;75;2919985;-66
2023/07/14 00:07:06;;;;;;;1.75;1.25;;;;;;;16.99;100.00;97952.38;1224103;75;2924753;-68
2023/07/14 00:09:42;;;;;;;2.05;1.60;;;;;;;16.64;100.00;97942.72;1223446;75;2933786;-65
2023/07/14 00:12:18;;;;;;;2.95;1.70;;;;;;;16.67;100.00;97943.69;1224447;75;2927163;-65
2023/07/14 00:14:50;;;;;;;2.75;1.80;;;;;;;16.95;100.00;97947.09;1224773;75;2932157;-67
2023/07/14 00:17:23;;;;;;;1.50;1.40;;;;;;;16.86;100.00;97949.41;1223876;75;2925895;-67
2023/07/14 00:19:55;;;;;;;1.30;1.20;;;;;;;17.02;100.00;97954.09;1224733;75;2920014;-67
2023/07/14 00:22:28;;;;;;;1.40;1.30;;;;;;;16.85;100.00;97956.97;1223939;75;2927492;-64
2023/07/14 00:25:04;;;;;;;2.00;1.80;;;;;;;16.91;100.00;97948.63;1224037;75;2928219;-67
2023/07/14 00:27:40;;;;;;;2.55;1.95;;;;;;;16.72;100.00;97957.50;1223853;75;2938378;-68
2023/07/14 00:30:19;;;;;;;3.45;2.50;;;;;;;16.93;100.00;97957.16;1223425;75;2923769;-65
2023/07/14 00:32:54;;;;;;;4.10;2.70;;;;;;;16.94;100.00;97953.91;1223940;75;2920890;-66
2023/07/14 00:35:30;;;;;;;3.80;2.65;;;;;;;17.04;100.00;97957.84;1224233;75;2928596;-66
2023/07/14 00:38:02;;;;;;;3.10;2.30;;;;;;;17.01;100.00;97966.44;1224275;75;2882124;-67
2023/07/14 00:40:41;;;;;;;2.95;2.50;;;;;;;17.12;100.00;97971.13;1223763;75;2934374;-65
2023/07/14 00:43:21;;;;;;;2.00;1.80;;;;;;;17.24;100.00;97969.78;1223837;75;2927140;-67
2023/07/14 00:45:58;;;;;;;3.05;1.60;;;;;;;17.20;100.00;97969.34;1223491;75;2929666;-65
2023/07/14 00:48:33;;;;;;;1.45;1.35;;;;;;;17.08;100.00;97967.88;1223779;75;2921968;-65
2023/07/14 00:51:13;;;;;;;2.05;1.30;;;;;;;17.02;100.00;97987.28;1223996;75;2920549;-66
2023/07/14 00:53:47;;;;;;;2.25;1.50;;;;;;;17.00;100.00;97974.00;1224031;75;2929792;-67
2023/07/14 00:56:41;;;;;;;1.55;1.30;;;;;;;17.02;100.00;97979.00;1223362;75;2921485;-69
2023/07/14 00:59:20;;;;;;;1.60;1.20;;;;;;;17.02;100.00;97984.53;1223277;75;2925277;-69
2023/07/14 01:02:22;;;;;;;1.10;1.00;;;;;;;16.96;100.00;97981.06;1223314;75;2920772;-68
2023/07/14 01:05:00;;;;;;;1.50;1.00;;;;;;;16.96;100.00;97976.28;1224088;75;2923830;-65
2023/07/14 01:07:38;;;;;;;1.50;1.40;;;;;;;16.74;100.00;97976.34;1222635;75;2928775;-65
2023/07/14 01:10:13;;;;;;;;;;;;;;;16.84;100.00;97969.31;1223830;75;2924686;-68
2023/07/14 01:12:50;;;;;;;2.25;1.30;;;;;;;16.81;100.00;97967.53;1224494;75;2929966;-64
2023/07/14 01:15:25;;;;;;;2.55;1.85;;;;;;;16.80;100.00;97968.81;1223931;75;2936357;-68
2023/07/14 01:17:59;;;;;;;1.70;1.45;;;;;;;16.61;100.00;97968.63;1223820;75;2923438;-66
2023/07/14 01:20:31;;;;;;;2.35;2.05;;;;;;;16.60;100.00;97972.66;1224225;75;2928130;-66
2023/07/14 01:23:24;;;;;;;1.55;1.45;;;;;;;16.65;100.00;97968.38;1224457;75;2923055;-65
2023/07/14 01:26:15;;;;;;;3.95;2.00;;;;;;;16.51;100.00;97970.16;1224258;75;2938427;-65
2023/07/14 01:28:51;;;;;;;1.90;1.60;;;;;;;16.56;100.00;97974.91;1224307;75;2923601;-66
2023/07/14 01:31:27;;;;;;;2.05;1.45;;;;;;;16.59;100.00;97979.44;1222989;75;2929981;-68
2023/07/14 01:34:01;;;;;;;1.20;1.10;;;;;;;16.56;100.00;97972.16;1223221;75;2933508;-70
2023/07/14 01:36:35;;;;;;;1.35;1.20;;;;;;;16.58;100.00;97972.41;1223905;75;2927553;-66
2023/07/14 01:39:08;;;;;;;1.00;0.90;;;;;;;16.55;100.00;97978.97;1223835;75;2927323;-67
2023/07/14 01:41:41;;;;;;;1.00;1.00;;;;;;;16.32;100.00;97981.78;1223248;75;2927833;-66
2023/07/14 01:44:24;;;;;;;2.10;1.85;;;;;;;16.06;100.00;97984.84;1223573;75;2928148;-68
2023/07/14 01:46:58;;;;;;;1.85;1.65;;;;;;;16.27;100.00;97985.31;1223492;75;2931206;-65
2023/07/14 01:49:41;;;;;;;2.30;1.75;;;;;;;16.03;100.00;97990.66;1223492;75;2930628;-67
2023/07/14 01:52:23;;;;;;;1.80;1.50;;;;;;;15.94;100.00;97989.63;1223583;75;2925214;-66
2023/07/14 01:55:02;;;;;;;2.05;1.90;;;;;;;15.88;100.00;97979.88;1223792;75;2928261;-66
2023/07/14 01:57:38;;;;;;;1.65;1.55;;;;;;;15.92;100.00;97986.66;1223978;75;2924248;-66
2023/07/14 02:00:16;;;;;;;3.00;1.65;;;;;;;16.04;100.00;97994.91;1223768;75;2934602;-66
2023/07/14 02:02:49;;;;;;;1.50;1.40;;;;;;;15.95;100.00;97991.16;1224160;75;2926279;-68
2023/07/14 02:05:30;;;;;;;3.10;1.10;;;;;;;15.77;100.00;97997.94;1223218;75;2926000;-65
2023/07/14 02:08:08;;;;;;;2.25;1.40;;;;;;;15.85;100.00;97989.91;1223891;75;2932925;-66
2023/07/14 02:10:40;;;;;;;1.00;1.00;;;;;;;15.81;100.00;97996.94;1223782;75;2924900;-66
2023/07/14 02:13:14;;;;;;;1.30;1.20;;;;;;;15.69;100.00;97990.66;1223793;75;2934138;-68
2023/07/14 02:15:51;;;;;;;1.30;1.10;;;;;;;15.71;100.00;97994.44;1223918;75;2926263;-66
2023/07/14 02:18:29;;;;;;;1.95;1.25;;;;;;;15.55;100.00;97987.63;1222672;75;2925699;-67
2023/07/14 02:21:03;;;;;;;2.80;1.20;;;;;;;15.58;100.00;97996.91;1224459;75;2921773;-65
2023/07/14 02:23:35;;;;;;;1.30;1.20;;;;;;;15.53;100.00;97998.41;1224278;75;2924837;-66
2023/07/14 02:26:18;;;;;;;1.85;1.00;;;;;;;15.63;100.00;98004.44;1224188;75;2919563;-68
2023/07/14 02:28:50;;;;;;;1.20;1.10;;;;;;;15.64;100.00;97997.69;1223977;75;2929659;-66
2023/07/14 02:31:31;;;;;;;1.80;0.90;;;;;;;15.61;100.00;98006.19;1224186;75;2929752;-66
2023/07/14 02:34:04;;;;;;;1.30;0.90;;;;;;;15.60;100.00;98015.72;1224825;75;2929463;-66
2023/07/14 02:36:45;;;;;;;1.00;1.00;;;;;;;15.46;100.00;98025.75;1224937;75;2918981;-68
2023/07/14 02:39:17;;;;;;;2.50;1.00;;;;;;;15.31;100.00;98026.72;1224443;75;2921187;-68
2023/07/14 02:41:53;;;;;;;1.20;1.10;;;;;;;15.13;100.00;98016.94;1224024;75;2924824;-69
2023/07/14 02:44:35;;;;;;;1.15;1.05;;;;;;;15.21;100.00;98019.94;1224432;75;2924476;-70
2023/07/14 02:47:16;;;;;;;1.20;1.10;;;;;;;15.17;100.00;98018.69;1224269;75;2927807;-66
2023/07/14 02:49:49;;;;;;;1.50;1.20;;;;;;;15.12;100.00;98022.94;1223716;75;2925365;-68
2023/07/14 02:52:21;;;;;;;1.45;1.10;;;;;;;15.07;100.00;98015.41;1224455;75;2923686;-70
2023/07/14 02:54:54;;;;;;;1.65;1.10;;;;;;;14.96;100.00;98023.63;1225129;75;2917692;-68
2023/07/14 02:57:26;;;;;;;1.25;1.10;;;;;;;15.02;100.00;98033.44;1224199;75;2926595;-65
2023/07/14 02:59:59;;;;;;;2.80;0.90;;;;;;;15.00;100.00;98033.16;1223691;75;2928443;-66
2023/07/14 03:02:34;;;;;;;1.90;1.30;;;;;;;14.79;100.00;98032.63;1223860;75;2924102;-68
2023/07/14 03:05:11;;;;;;;1.90;1.70;;;;;;;14.57;100.00;98035.25;1223746;75;2928671;-64
2023/07/14 03:07:44;;;;;;;1.40;1.30;;;;;;;14.69;100.00;98028.53;1223815;75;2924091;-67
2023/07/14 03:10:16;;;;;;;2.85;1.40;;;;;;;14.88;100.00;98034.38;1224353;75;2926377;-69
2023/07/14 03:12:49;;;;;;;2.45;1.30;;;;;;;14.87;100.00;98036.41;1224231;75;2920944;-67
2023/07/14 03:15:22;;;;;;;2.15;1.00;;;;;;;14.87;100.00;98035.66;1223611;75;2921686;-69
2023/07/14 03:17:57;;;;;;;1.80;0.90;;;;;;;14.88;100.00;98028.88;1224513;75;2925372;-66
2023/07/14 03:20:29;;;;;;;1.05;0.95;;;;;;;14.84;100.00;98034.63;1223964;75;2920625;-66
2023/07/14 03:23:02;;;;;;;1.70;1.20;;;;;;;14.61;100.00;98031.03;1224492;75;2922086;-67
2023/07/14 03:25:35;;;;;;;1.95;1.20;;;;;;;14.48;100.00;98030.69;1224205;75;2927997;-68
2023/07/14 03:28:08;;;;;;;2.50;1.00;;;;;;;14.74;100.00;98033.31;1223802;75;2919904;-66
2023/07/14 03:30:43;;;;;;;1.40;1.30;;;;;;;14.59;100.00;98030.00;1224344;75;2929805;-66
2023/07/14 03:33:18;;;;;;;1.35;1.25;;;;;;;14.80;100.00;98031.34;1224313;75;2924531;-67
2023/07/14 03:35:51;;;;;;;1.85;1.10;;;;;;;14.58;100.00;98034.03;1223915;75;2927197;-67
2023/07/14 03:38:23;;;;;;;1.40;1.30;;;;;;;14.62;100.00;98029.00;1223820;75;2924100;-68
2023/07/14 03:40:56;;;;;;;1.35;1.10;;;;;;;14.62;100.00;98031.78;1221095;75;3048722;-66
2023/07/14 03:43:28;;;;;;;2.15;1.30;;;;;;;14.74;100.00;98033.31;1223268;75;2928640;-66
2023/07/14 03:46:01;;;;;;;1.35;1.10;;;;;;;14.81;100.00;98043.13;1223979;75;2923476;-66
2023/07/14 03:48:36;;;;;;;1.20;1.05;;;;;;;14.75;100.00;98048.63;1223877;75;2929968;-68
2023/07/14 03:51:09;;;;;;;1.20;1.10;;;;;;;14.75;100.00;98054.13;1223808;75;2921823;-67
2023/07/14 03:53:42;;;;;;;1.35;1.25;;;;;;;14.78;100.00;98057.91;1224153;75;2921858;-66
2023/07/14 03:56:15;;;;;;;2.65;1.90;;;;;;;14.64;100.00;98059.59;1223716;75;2927721;-69
2023/07/14 03:58:47;;;;;;;1.20;1.10;;;;;;;14.82;100.00;98067.44;1223554;75;2925757;-67
2023/07/14 04:01:20;;;;;;;1.40;1.20;;;;;;;14.67;100.00;98059.38;1223780;75;2921778;-66
2023/07/14 04:03:55;;;;;;;2.00;1.40;;;;;;;14.75;100.00;98065.16;1220683;75;2956642;-69
2023/07/14 04:06:28;;;;;;;1.85;1.50;;;;;;;14.78;100.00;98058.66;1223735;75;2927585;-71
2023/07/14 04:09:03;;;;;;;1.40;1.30;;;;;;;14.93;100.00;98068.75;1222996;75;2933712;-69
2023/07/14 04:11:37;;;;;;;2.00;1.40;;;;;;;14.77;100.00;98070.94;1223872;75;2921194;-68
2023/07/14 04:14:11;;;;;;;1.50;1.40;;;;;;;14.92;100.00;98070.75;1222554;75;2924888;-67
2023/07/14 04:16:43;;;;;;;1.40;1.30;;;;;;;14.70;100.00;98069.41;1224037;75;2924276;-68
2023/07/14 04:19:19;;;;;;;1.85;1.60;;;;;;;14.78;100.00;98068.94;1224012;75;2919218;-66
2023/07/14 04:21:51;;;;;;;1.65;1.55;;;;;;;14.70;100.00;98071.41;1223460;75;2936867;-69
2023/07/14 04:24:24;;;;;;;1.80;1.50;;;;;;;14.84;100.00;98053.16;1225004;75;2915788;-66
2023/07/14 04:26:57;;;;;;;1.40;1.30;;;;;;;14.98;100.00;98060.47;1225030;75;2931982;-70
2023/07/14 04:29:30;;;;;;;2.45;1.50;;;;;;;15.06;100.00;98064.28;1224626;75;2928026;-67
2023/07/14 04:32:02;;;;;;;1.70;1.50;;;;;;;15.02;100.00;98057.50;1224202;75;2923030;-66
2023/07/14 04:34:38;;;;;;;1.90;1.70;;;;;;;14.87;100.00;98055.69;1223935;75;2924252;-69
2023/07/14 04:37:11;;;;;;;1.75;1.60;;;;;;;15.15;100.00;98057.78;1224385;75;2924797;-67
2023/07/14 04:39:44;;;;;;;2.30;1.90;;;;;;;15.13;100.00;98058.28;1223674;75;2928424;-66
2023/07/14 04:42:17;;;;;;;3.25;1.70;;;;;;;15.19;100.00;98052.03;1223921;75;2923545;-66
2023/07/14 04:44:49;;;;;;;4.05;1.70;;;;;;;15.33;100.00;98051.06;1223445;75;2925929;-66
2023/07/14 04:47:22;;;;;;;1.40;1.30;;;;;;;15.34;100.00;98047.03;1224422;75;2930645;-65
2023/07/14 04:49:57;;;;;;;2.35;1.80;;;;;;;15.27;100.00;98059.34;1223969;75;2928551;-68
2023/07/14 04:52:30;;;;;;;2.15;1.75;;;;;;;15.48;100.00;98056.34;1223193;67;2920734;-68
2023/07/14 04:55:02;;;;;;;2.05;1.50;;;;;;;15.50;100.00;98059.38;1223569;75;2933576;-67
2023/07/14 04:57:35;;;;;;;2.00;1.80;;;;;;;15.71;100.00;98057.19;1224218;75;2919005;-66
2023/07/14 05:00:11;;;;;;;1.95;1.75;;;;;;;15.63;100.00;98058.88;1223862;75;2929594;-67
2023/07/14 05:02:43;;;;;;;2.10;1.90;;;;;;;15.76;100.00;98059.19;1223969;75;2933465;-68
2023/07/14 05:05:24;;;;;;;1.75;1.65;;;;;;;15.85;100.00;98058.16;1223666;75;2925769;-67
2023/07/14 05:07:57;;;;;;;2.30;2.10;;;;;;;15.94;100.00;98055.91;1223449;75;2920397;-65
2023/07/14 05:10:31;;;;;;;2.00;1.80;;;;;;;16.09;100.00;98061.19;1223915;75;2919369;-66
2023/07/14 05:13:04;;;;;;;3.05;1.70;;;;;;;16.22;100.00;98065.44;1225499;75;2923269;-65
2023/07/14 05:15:37;;;;;;;2.75;2.40;;;;;;;16.11;100.00;98063.44;1224307;75;2919014;-66
2023/07/14 05:18:10;;;;;;;3.30;2.95;;;;;;;16.19;100.00;98070.72;1223740;67;2926026;-65
2023/07/14 05:20:46;;;;;;;2.85;2.10;;;;;;;16.42;100.00;98067.91;1224391;75;2922402;-67
2023/07/14 05:23:19;;;;;;;2.50;2.25;;;;;;;16.44;100.00;98067.41;1224135;75;2917253;-68
2023/07/14 05:25:51;;;;;;;3.50;1.85;;;;;;;16.59;100.00;98065.09;1224447;75;2924471;-68
2023/07/14 05:28:24;;;;;;;4.25;2.30;;;;;;;16.57;100.00;98070.38;1224910;75;2918880;-69
2023/07/14 05:30:56;;;;;;;4.95;2.60;;;;;;;16.59;100.00;98074.16;1224221;75;2920184;-65
2023/07/14 05:33:29;;;;;;;3.40;2.30;;;;;;;16.68;100.00;98070.38;1223786;75;2920122;-65
2023/07/14 05:36:04;;;;;;;2.35;1.85;;;;;;;16.88;100.00;98074.09;1224686;75;2920534;-65
2023/07/14 05:38:39;;;;;;;2.05;1.85;;;;;;;16.98;100.00;98078.06;1224434;75;2929383;-67
2023/07/14 05:41:11;;;;;;;2.30;2.10;;;;;;;17.03;100.00;98083.59;1224160;75;2928516;-65
2023/07/14 05:43:44;;;;;;;3.65;3.00;;;;;;;16.82;100.00;98077.63;1224266;75;2919759;-66
2023/07/14 05:46:16;;;;;;;3.35;2.35;;;;;;;17.11;100.00;98091.38;1224335;75;2934406;-69
2023/07/14 05:48:49;;;;;;;4.05;2.70;;;;;;;17.14;100.00;98085.56;1223036;75;2937367;-66
2023/07/14 05:51:24;;;;;;;5.75;3.15;;;;;;;17.07;100.00;98083.31;1224484;75;2929836;-69
2023/07/14 05:53:56;;;;;;;2.45;2.25;;;;;;;17.33;100.00;98077.41;1224035;75;2930181;-67
2023/07/14 05:56:29;;;;;;;3.75;2.80;;;;;;;17.33;100.00;98082.94;1223289;75;2927747;-71
2023/07/14 05:59:01;;;;;;;3.75;2.25;;;;;;;17.65;100.00;98083.28;1223449;75;2934053;-67
2023/07/14 06:01:34;;;;;;;3.45;2.10;;;;;;;17.81;100.00;98083.69;1224563;75;2919202;-69
2023/07/14 06:04:08;;;;;;;2.45;2.05;;;;;;;17.86;100.00;98080.13;1224578;75;2926397;-68
2023/07/14 06:06:43;;;;;;;2.80;2.30;;;;;;;17.91;100.00;98084.13;1225027;75;2923756;-67
2023/07/14 06:09:17;;;;;;;2.30;2.00;;;;;;;18.02;100.00;98081.28;1225491;75;2917833;-67
2023/07/14 06:11:51;;;;;;;2.80;2.10;;;;;;;18.26;100.00;98086.84;1223686;75;2924501;-70
2023/07/14 06:14:23;;;;;;;2.10;1.90;;;;;;;18.41;100.00;98094.03;1224288;75;2925799;-68
2023/07/14 06:16:56;;;;;;;2.00;1.80;;;;;;;18.49;100.00;98084.59;1224492;75;2931041;-68
2023/07/14 06:19:28;;;;;;;2.95;2.50;;;;;;;18.60;100.00;98094.84;1224396;75;2921826;-65
2023/07/14 06:22:06;;;;;;;4.45;2.80;;;;;;;18.58;100.00;98088.31;1225195;75;2925253;-66
2023/07/14 06:24:38;;;;;;;3.75;3.15;;;;;;;18.59;100.00;98087.78;1223827;75;2917772;-66
2023/07/14 06:27:11;;;;;;;4.55;3.30;;;;;;;18.53;100.00;98081.53;1224696;75;2922203;-68
2023/07/14 06:29:45;;;;;;;4.55;3.20;;;;;;;18.65;100.00;98090.50;1225001;75;2932610;-68
2023/07/14 06:32:18;;;;;;;2.90;2.60;;;;;;;18.79;100.00;98080.31;1224759;75;2923618;-69
2023/07/14 06:34:50;;;;;;;3.70;2.90;;;;;;;18.82;100.00;98091.09;1224651;75;2925751;-69
2023/07/14 06:37:26;;;;;;;4.55;3.10;;;;;;;19.08;100.00;98093.31;1225073;75;2923122;-68
2023/07/14 06:39:59;;;;;;;4.70;3.25;;;;;;;19.14;100.00;98087.69;1224466;75;2920463;-66
2023/07/14 06:42:31;;;;;;;4.50;2.70;;;;;;;19.27;100.00;98087.03;1224907;75;2915845;-67
2023/07/14 06:45:05;;;;;;;3.45;2.40;;;;;;;19.44;100.00;98087.56;1225135;75;2919986;-67
2023/07/14 06:47:37;;;;;;;4.65;3.05;;;;;;;19.50;100.00;98082.66;1225060;75;2930977;-68
2023/07/14 06:50:11;;;;;;;3.95;2.70;;;;;;;19.58;100.00;98080.78;1224564;75;2921990;-67
2023/07/14 06:52:48;;;;;;;3.40;2.50;;;;;;;19.79;100.00;98083.03;1224234;75;2929412;-69
2023/07/14 06:55:20;;;;;;;2.65;2.25;;;;;;;19.85;100.00;98077.41;1224105;75;2933212;-70
2023/07/14 06:57:53;;;;;;;2.65;2.15;;;;;;;19.93;100.00;98072.72;1224538;75;2922326;-69
2023/07/14 07:00:26;;;;;;;4.90;2.80;;;;;;;20.02;100.00;98072.31;1224386;75;2922075;-67
2023/07/14 07:02:58;;;;;;;5.40;2.60;;;;;;;20.16;100.00;98071.06;1224142;75;2916323;-69
2023/07/14 07:05:31;;;;;;;2.55;2.10;;;;;;;20.39;100.00;98070.66;1224411;75;2926433;-68
2023/07/14 07:08:07;;;;;;;3.65;2.40;;;;;;;20.46;100.00;98070.03;1224583;75;2920477;-67
2023/07/14 07:10:39;;;;;;;5.00;2.50;;;;;;;20.58;100.00;98065.03;1221361;75;2970009;-70
2023/07/14 07:13:12;;;;;;;4.55;2.35;;;;;;;20.75;100.00;98062.69;1223307;75;2927317;-66
2023/07/14 07:15:45;;;;;;;3.75;2.40;;;;;;;20.87;100.00;98068.78;1224283;75;2920083;-68
2023/07/14 07:18:17;;;;;;;3.70;2.20;;;;;;;20.92;100.00;98072.72;1223885;75;2920055;-67
2023/07/14 07:20:50;;;;;;;4.15;2.50;;;;;;;20.76;100.00;98072.53;1223435;75;2926935;-68
2023/07/14 07:23:25;;;;;;;3.40;2.55;;;;;;;20.87;100.00;98073.59;1223698;75;2925139;-68
2023/07/14 07:26:00;;;;;;;3.65;2.20;;;;;;;20.86;100.00;98070.06;1223129;75;2921824;-67
2023/07/14 07:28:32;;;;;;;3.55;2.30;;;;;;;21.30;100.00;98070.41;1223560;75;2931829;-66
2023/07/14 07:31:14;;;;;;;5.30;2.40;;;;;;;21.40;100.00;98070.75;1223959;75;2925866;-68
2023/07/14 07:33:47;;;;;;;3.95;2.60;;;;;;;21.19;100.00;98073.44;1224028;75;2921713;-67
2023/07/14 07:36:22;;;;;;;4.50;2.75;;;;;;;21.20;100.00;98067.34;1224109;75;2926599;-69
2023/07/14 07:38:58;;;;;;;3.95;2.60;;;;;;;21.56;100.00;98069.63;1225461;75;2845335;-69
2023/07/14 07:41:31;;;;;;;3.60;1.85;;;;;;;21.84;96.87;98073.78;1224384;75;2932949;-68
2023/07/14 07:44:08;;;;;;;4.25;2.20;;;;;;;21.60;100.00;98070.03;1225197;75;2925058;-69
2023/07/14 07:46:41;;;;;;;3.95;2.10;;;;;;;22.09;98.79;98065.84;1224010;75;2936587;-67
2023/07/14 07:49:15;;;;;;;3.85;2.25;;;;;;;21.93;96.94;98064.94;1223908;75;2922961;-69
2023/07/14 07:51:47;;;;;;;3.45;2.20;;;;;;;21.94;90.20;98065.72;1224206;75;2927150;-67
2023/07/14 07:54:22;;;;;;;2.65;2.20;;;;;;;22.16;100.00;98070.72;1224474;75;2920456;-66
2023/07/14 07:56:55;;;;;;;3.85;2.15;;;;;;;22.19;98.70;98069.63;1224897;75;2932705;-68
2023/07/14 07:59:27;;;;;;;2.90;2.10;;;;;;;22.28;92.84;98062.84;1223961;75;2925794;-68
2023/07/14 08:02:00;;;;;;;5.15;2.40;;;;;;;22.24;89.92;98068.03;1223450;75;2930867;-68
2023/07/14 08:04:33;;;;;;;3.90;2.05;;;;;;;22.43;87.66;98062.94;1223892;75;2929932;-69
2023/07/14 08:07:05;;;;;;;3.35;2.15;;;;;;;22.61;90.51;98058.44;1225050;75;2925520;-68
2023/07/14 08:09:41;;;;;;;3.60;1.60;;;;;;;22.85;85.79;98062.06;1224524;75;2928710;-69
2023/07/14 08:12:14;;;;;;;2.20;1.70;;;;;;;22.95;86.42;98051.91;1224473;75;2923419;-70
2023/07/14 08:14:59;;;;;;;2.75;2.00;;;;;;;22.96;90.46;98053.38;1224330;75;2925992;-67
2023/07/14 08:17:34;;;;;;;3.60;1.55;;;;;;;22.86;87.06;98053.16;1224699;75;2920629;-68
2023/07/14 08:20:08;;;;;;;3.45;1.85;;;;;;;23.10;87.01;98051.25;1224559;75;2929311;-65
2023/07/14 08:22:41;;;;;;;1.90;1.40;;;;;;;23.51;87.97;98047.47;1224368;75;2929158;-67
2023/07/14 08:25:16;;;;;;;3.65;1.90;;;;;;;23.13;80.60;98050.13;1223539;75;2925141;-67
2023/07/14 08:27:49;;;;;;;3.30;1.90;;;;;;;23.09;79.66;98047.72;1223826;75;2929855;-67
2023/07/14 08:30:23;;;;;;;3.05;1.95;;;;;;;23.23;76.70;98039.19;1224671;75;2922510;-68
2023/07/14 08:32:55;;;;;;;2.20;1.55;;;;;;;23.49;70.90;98044.47;1224397;75;2926839;-68
2023/07/14 08:35:28;;;;;;;2.65;1.30;;;;;;;23.65;72.25;98048.06;1224306;75;2923064;-70
2023/07/14 08:38:01;;;;;;;2.45;1.15;;;;;;;23.69;67.72;98045.66;1224220;75;2921275;-69
2023/07/14 08:40:45;;;;;;;3.75;1.75;;;;;;;23.69;68.59;98037.25;1223920;75;2928405;-70
2023/07/14 08:43:35;;;;;;;1.20;1.05;;;;;;;24.11;66.69;98036.91;1224321;75;2925494;-68
2023/07/14 08:46:24;;;;;;;2.15;1.40;;;;;;;23.90;63.55;98034.31;1224003;75;2922790;-68
2023/07/14 08:49:03;;;;;;;;;;;;;;;24.01;63.39;98028.34;1225116;75;2929386;-68
2023/07/14 08:51:43;;;;;;;2.15;1.35;;;;;;;24.12;62.63;98035.59;1225298;75;2921813;-68
2023/07/14 08:54:20;;;;;;;2.00;1.10;;;;;;;24.76;64.99;98041.31;1224899;75;2915988;-66
2023/07/14 08:56:55;;;;;;;1.45;0.85;;;;;;;24.88;64.00;98031.19;1224675;75;2927305;-69
2023/07/14 08:59:39;;;;;;;1.65;1.20;;;;;;;24.96;58.90;98040.31;1225010;75;2918680;-68
2023/07/14 09:02:24;;;;;;;1.55;1.35;;;;;;;24.81;61.75;98038.31;1223984;75;2925380;-68
2023/07/14 09:05:04;;;;;;;1.10;1.00;;;;;;;25.26;61.48;98024.72;1224540;75;2918614;-67
2023/07/14 09:07:36;;;;;;;1.80;1.30;;;;;;;24.96;61.33;98023.50;1224675;75;2919393;-71
2023/07/14 09:10:13;;;;;;;2.40;1.50;;;;;;;24.94;61.76;98031.72;1223600;75;2919373;-67
2023/07/14 09:12:57;;;;;;;1.65;1.20;;;;;;;24.93;61.23;98033.03;1224258;75;2922686;-69
2023/07/14 09:15:30;;;;;;;2.65;1.60;;;;;;;25.61;64.74;98028.41;1223609;75;2925580;-66
2023/07/14 09:18:22;;;;;;;1.55;1.45;;;;;;;25.75;65.01;98036.56;1223328;75;2934812;-67
2023/07/14 09:21:13;;;;;;;2.70;1.60;;;;;;;24.85;62.63;98032.34;1224602;75;2925270;-71
2023/07/14 09:24:15;;;;;;;1.55;1.25;;;;;;;25.85;62.74;98031.81;1224583;75;2930267;-69
2023/07/14 09:26:54;;;;;;;1.90;1.10;;;;;;;25.84;60.74;98024.72;1223852;75;2922612;-68
2023/07/14 09:29:37;;;;;;;2.60;1.55;;;;;;;25.40;58.90;98025.94;1224529;75;2930874;-71
2023/07/14 09:32:19;;;;;;;2.45;1.35;;;;;;;25.13;57.90;98024.94;1224030;75;2920956;-67
2023/07/14 09:35:00;;;;;;;3.05;1.40;;;;;;;25.11;55.20;98019.13;1224993;75;2922964;-68
2023/07/14 09:37:42;;;;;;;1.70;1.25;;;;;;;25.77;54.48;98009.44;1224165;75;2926597;-69
2023/07/14 09:40:21;;;;;;;2.65;1.30;;;;;;;25.83;56.18;98009.19;1224075;75;2917090;-69
2023/07/14 09:42:56;;;;;;;3.55;1.45;;;;;;;25.79;54.21;98006.81;1223869;75;2921174;-68
2023/07/14 09:45:34;;;;;;;1.75;1.10;;;;;;;26.13;54.07;98011.78;1222376;75;2925401;-69
2023/07/14 09:48:14;;;;;;;2.70;1.60;;;;;;;26.02;51.62;98014.31;1225170;75;2929388;-71
2023/07/14 09:51:00;;;;;;;1.80;1.20;;;;;;;26.24;52.85;98018.22;1224751;75;2920316;-67
2023/07/14 09:53:34;;;;;;;1.65;1.25;;;;;;;26.34;53.08;98005.78;1224111;75;2923707;-70
2023/07/14 09:56:10;;;;;;;1.40;1.10;;;;;;;26.50;51.09;98014.03;1224796;75;2928261;-69
2023/07/14 09:58:53;;;;;;;1.70;1.10;;;;;;;26.33;51.39;98007.09;1224170;75;2906458;-68
2023/07/14 10:01:29;;;;;;;2.70;1.30;;;;;;;25.85;50.78;98009.38;1224359;75;2937011;-67
2023/07/14 10:04:14;;;;;;;3.30;1.10;;;;;;;26.14;50.80;98004.84;1223745;75;2932948;-69
2023/07/14 10:06:50;;;;;;;2.90;1.15;;;;;;;26.77;49.83;97994.47;1224828;75;2927175;-67
2023/07/14 10:09:23;;;;;;;2.45;1.60;;;;;;;26.92;50.39;97994.31;1225110;75;2928781;-67
2023/07/14 10:11:57;;;;;;;2.90;1.55;;;;;;;26.27;48.64;97991.81;1224605;75;2925784;-67
2023/07/14 10:14:40;;;;;;;3.85;1.00;;;;;;;26.82;50.63;97992.72;1223633;75;2922674;-68
2023/07/14 10:17:28;;;;;;;1.70;1.20;;;;;;;26.84;48.75;97990.09;1223990;75;2920205;-68
2023/07/14 10:20:02;;;;;;;3.50;1.60;;;;;;;26.55;50.87;97985.00;1224978;75;2925039;-67
2023/07/14 10:22:37;;;;;;;2.35;1.25;;;;;;;26.82;50.22;97979.44;1224757;75;2934321;-67
2023/07/14 10:25:19;;;;;;;1.55;1.10;;;;;;;26.67;48.83;97980.34;1223886;75;2921833;-70
2023/07/14 10:28:01;;;;;;;1.55;1.10;;;;;;;26.92;48.40;97985.13;1223986;75;2926414;-68
2023/07/14 10:31:06;;;;;;;1.50;1.00;;;;;;;27.11;49.06;97970.47;1224197;75;2920266;-67
2023/07/14 10:33:55;;;;;;;3.30;1.40;;;;;;;26.97;44.04;97975.69;1224134;75;2923913;-67
2023/07/14 10:36:37;;;;;;;2.70;1.35;;;;;;;26.71;43.54;97968.72;1224345;75;2924674;-69
2023/07/14 10:39:18;;;;;;;3.20;0.95;;;;;;;26.85;43.29;97969.84;1224168;75;2928662;-68
2023/07/14 10:41:52;;;;;;;1.50;1.05;;;;;;;27.48;43.44;97962.81;1224088;75;2924808;-69
2023/07/14 10:44:33;;;;;;;2.15;0.80;;;;;;;27.59;41.93;97961.53;1223765;75;2920426;-69
2023/07/14 10:47:16;;;;;;;3.75;1.30;;;;;;;27.76;41.60;97961.44;1224677;75;2917335;-69
2023/07/14 10:50:00;;;;;;;1.10;0.60;;;;;;;28.42;42.81;97957.88;1224010;75;2919873;-69
2023/07/14 10:52:39;;;;;;;0.95;0.75;;;;;;;28.21;41.92;97950.75;1224560;75;2924645;-69
2023/07/14 10:55:22;;;;;;;0.85;0.70;;;;;;;27.95;42.49;97960.03;1225239;75;2920936;-68
2023/07/14 10:58:01;;;;;;;1.80;1.00;;;;;;;28.06;43.08;97948.19;1224641;75;2927365;-68
2023/07/14 11:00:42;;;;;;;1.30;0.75;;;;;;;28.59;41.80;97943.66;1224610;75;2925327;-66
2023/07/14 11:03:31;;;;;;;1.60;0.75;;;;;;;28.63;41.23;97940.41;1224656;75;2920201;-69
2023/07/14 11:06:12;;;;;;;;;;;;;;;28.50;42.96;97935.22;1225191;75;2962460;-67
2023/07/14 11:08:45;;;;;;;1.80;0.90;;;;;;;28.31;40.23;97942.31;1223866;75;2927446;-69
2023/07/14 11:11:28;;;;;;;2.65;0.80;;;;;;;29.29;40.23;97932.38;1224885;75;2920466;-68
2023/07/14 11:14:20;;;;;;;2.15;0.90;;;;;;;28.82;41.00;97928.34;1224468;75;2930115;-69
2023/07/14 11:17:02;;;;;;;3.95;1.30;;;;;;;28.85;41.25;97921.53;1224062;75;2929122;-68
2023/07/14 11:20:08;;;;;;;1.75;1.05;;;;;;;29.01;42.23;97927.56;1224582;75;2924678;-70
2023/07/14 11:23:14;;;;;;;2.05;1.20;;;;;;;28.68;41.07;97926.00;1224347;75;2932477;-69
2023/07/14 11:25:55;;;;;;;1.80;0.90;;;;;;;28.88;39.55;97923.16;1225127;75;2921493;-70
2023/07/14 11:28:43;;;;;;;1.35;0.85;;;;;;;28.60;38.27;97914.16;1223746;75;2929511;-69
2023/07/14 11:31:28;;;;;;;1.05;0.85;;;;;;;28.98;41.16;97909.75;1223782;75;2930343;-69
2023/07/14 11:34:24;;;;;;;1.90;1.10;;;;;;;28.65;41.14;97915.19;1224815;75;2925741;-68
2023/07/14 11:37:19;;;;;;;1.95;1.05;;;;;;;29.14;38.49;97904.56;1224615;75;2919755;-68
2023/07/14 11:39:58;;;;;;;2.40;1.30;;;;;;;28.63;41.19;97903.78;1224214;75;2926575;-66
2023/07/14 11:42:34;;;;;;;1.60;1.10;;;;;;;28.37;42.03;97899.78;1223960;75;2929695;-67
2023/07/14 11:45:19;;;;;;;1.05;0.70;;;;;;;29.30;39.79;97902.13;1224499;75;2923440;-67
2023/07/14 11:47:53;;;;;;;1.95;1.10;;;;;;;28.70;40.70;97904.97;1224616;75;2920306;-70
2023/07/14 11:50:32;;;;;;;1.95;1.20;;;;;;;28.63;42.05;97918.59;1224341;75;2926827;-69
2023/07/14 11:53:20;;;;;;;1.45;1.05;;;;;;;29.41;41.32;97909.19;1223842;75;2920703;-68
2023/07/14 11:56:12;;;;;;;2.70;1.50;;;;;;;28.54;42.59;97907.34;1224420;75;2925904;-67